sensor_id;sensor_type;location;lat;lon;timestamp;pressure;altitude;pressure_sealevel;temperature;humidity
30618;BME280;17384;51.214;9.202;2023-05-16T00:02:17;98478.00;;;9.74;86.48
30618;BME280;17384;51.214;9.202;2023-05-16T00:04:43;98481.13;;;9.71;86.79
30618;BME280;17384;51.214;9.202;2023-05-16T00:07:10;98474.94;;;9.64;87.06
30618;BME280;17384;51.214;9.202;2023-05-16T00:09:36;98486.38;;;9.66;87.20
30618;BME280;17384;51.214;9.202;2023-05-16T00:12:01;98479.31;;;9.59;87.83
30618;BME280;17384;51.214;9.202;2023-05-16T00:14:27;98481.81;;;9.60;87.85
30618;BME280;17384;51.214;9.202;2023-05-16T00:16:53;98477.06;;;9.56;88.33
30618;BME280;17384;51.214;9.202;2023-05-16T00:19:18;98461.25;;;9.53;88.36
30618;BME280;17384;51.214;9.202;2023-05-16T00:21:44;98462.09;;;9.53;88.41
30618;BME280;17384;51.214;9.202;2023-05-16T00:24:10;98469.16;;;9.54;88.30
30618;BME280;17384;51.214;9.202;2023-05-16T00:26:35;98470.63;;;9.57;88.30
30618;BME280;17384;51.214;9.202;2023-05-16T00:29:01;98478.91;;;9.62;88.24
30618;BME280;17384;51.214;9.202;2023-05-16T00:31:26;98474.06;;;9.70;87.85
30618;BME280;17384;51.214;9.202;2023-05-16T00:33:52;98478.06;;;9.61;88.04
30618;BME280;17384;51.214;9.202;2023-05-16T00:36:19;98478.06;;;9.61;87.91
30618;BME280;17384;51.214;9.202;2023-05-16T00:38:44;98471.38;;;9.64;87.73
30618;BME280;17384;51.214;9.202;2023-05-16T00:41:09;98463.66;;;9.67;87.56
30618;BME280;17384;51.214;9.202;2023-05-16T00:43:35;98466.78;;;9.64;88.05
30618;BME280;17384;51.214;9.202;2023-05-16T00:46:00;98471.56;;;9.69;87.97
30618;BME280;17384;51.214;9.202;2023-05-16T00:48:26;98458.41;;;9.72;87.75
30618;BME280;17384;51.214;9.202;2023-05-16T00:50:52;98466.97;;;9.69;87.94
30618;BME280;17384;51.214;9.202;2023-05-16T00:53:18;98468.22;;;9.73;87.99
30618;BME280;17384;51.214;9.202;2023-05-16T00:55:44;98460.09;;;9.73;87.70
30618;BME280;17384;51.214;9.202;2023-05-16T00:58:11;98455.09;;;9.70;87.70
30618;BME280;17384;51.214;9.202;2023-05-16T01:00:37;98465.50;;;9.73;87.86
30618;BME280;17384;51.214;9.202;2023-05-16T01:03:05;98464.88;;;9.71;87.81
30618;BME280;17384;51.214;9.202;2023-05-16T01:05:31;98452.78;;;9.74;87.48
30618;BME280;17384;51.214;9.202;2023-05-16T01:07:57;98474.41;;;9.80;87.35
30618;BME280;17384;51.214;9.202;2023-05-16T01:10:23;98472.75;;;9.79;87.58
30618;BME280;17384;51.214;9.202;2023-05-16T01:13:03;98473.38;;;9.81;87.15
30618;BME280;17384;51.214;9.202;2023-05-16T01:15:44;98470.06;;;9.79;87.08
30618;BME280;17384;51.214;9.202;2023-05-16T01:20:55;98470.44;;;9.83;86.40
30618;BME280;17384;51.214;9.202;2023-05-16T01:26:25;98476.91;;;9.82;86.67
30618;BME280;17384;51.214;9.202;2023-05-16T01:28:51;98477.06;;;9.87;86.58
30618;BME280;17384;51.214;9.202;2023-05-16T01:31:18;98489.34;;;9.90;86.41
30618;BME280;17384;51.214;9.202;2023-05-16T01:33:43;98485.97;;;9.94;85.97
30618;BME280;17384;51.214;9.202;2023-05-16T01:36:14;98483.94;;;9.90;86.06
30618;BME280;17384;51.214;9.202;2023-05-16T01:42:16;98494.75;;;9.90;86.27
30618;BME280;17384;51.214;9.202;2023-05-16T01:44:18;98500.69;;;9.80;86.89
30618;BME280;17384;51.214;9.202;2023-05-16T01:46:53;98493.31;;;9.87;86.28
30618;BME280;17384;51.214;9.202;2023-05-16T01:52:15;98511.47;;;9.87;87.13
30618;BME280;17384;51.214;9.202;2023-05-16T01:54:44;98505.28;;;9.79;87.73
30618;BME280;17384;51.214;9.202;2023-05-16T01:57:12;98499.50;;;9.69;88.24
30618;BME280;17384;51.214;9.202;2023-05-16T01:59:40;98508.88;;;9.67;88.18
30618;BME280;17384;51.214;9.202;2023-05-16T02:02:07;98504.28;;;9.67;88.16
30618;BME280;17384;51.214;9.202;2023-05-16T02:04:32;98499.50;;;9.63;88.03
30618;BME280;17384;51.214;9.202;2023-05-16T02:06:58;98505.22;;;9.55;88.50
30618;BME280;17384;51.214;9.202;2023-05-16T02:09:25;98498.28;;;9.59;87.94
30618;BME280;17384;51.214;9.202;2023-05-16T02:11:50;98491.66;;;9.55;88.09
30618;BME280;17384;51.214;9.202;2023-05-16T02:14:16;98493.47;;;9.61;88.02
30618;BME280;17384;51.214;9.202;2023-05-16T02:16:41;98503.06;;;9.63;87.60
30618;BME280;17384;51.214;9.202;2023-05-16T02:19:06;98485.00;;;9.57;87.31
30618;BME280;17384;51.214;9.202;2023-05-16T02:21:32;98494.38;;;9.55;87.35
30618;BME280;17384;51.214;9.202;2023-05-16T02:23:57;98498.91;;;9.61;86.71
30618;BME280;17384;51.214;9.202;2023-05-16T02:26:23;98497.25;;;9.60;86.96
30618;BME280;17384;51.214;9.202;2023-05-16T02:28:48;98500.00;;;9.53;87.34
30618;BME280;17384;51.214;9.202;2023-05-16T02:31:27;98514.31;;;9.60;86.63
30618;BME280;17384;51.214;9.202;2023-05-16T02:33:53;98521.25;;;9.56;86.93
30618;BME280;17384;51.214;9.202;2023-05-16T02:36:18;98518.78;;;9.48;87.28
30618;BME280;17384;51.214;9.202;2023-05-16T02:38:45;98524.84;;;9.37;87.37
30618;BME280;17384;51.214;9.202;2023-05-16T02:41:10;98521.94;;;9.32;86.90
30618;BME280;17384;51.214;9.202;2023-05-16T02:43:36;98527.34;;;9.32;86.81
30618;BME280;17384;51.214;9.202;2023-05-16T02:46:03;98525.09;;;9.29;86.56
30618;BME280;17384;51.214;9.202;2023-05-16T02:48:29;98527.81;;;9.29;86.62
30618;BME280;17384;51.214;9.202;2023-05-16T02:50:54;98537.00;;;9.21;86.60
30618;BME280;17384;51.214;9.202;2023-05-16T02:53:20;98541.59;;;9.14;87.13
30618;BME280;17384;51.214;9.202;2023-05-16T02:55:45;98544.50;;;9.12;87.22
30618;BME280;17384;51.214;9.202;2023-05-16T02:58:11;98543.66;;;9.12;86.99
30618;BME280;17384;51.214;9.202;2023-05-16T03:00:36;98545.75;;;9.16;87.08
30618;BME280;17384;51.214;9.202;2023-05-16T03:03:01;98540.34;;;9.03;86.39
30618;BME280;17384;51.214;9.202;2023-05-16T03:05:27;98553.50;;;9.00;86.19
30618;BME280;17384;51.214;9.202;2023-05-16T03:07:52;98552.06;;;8.97;85.84
30618;BME280;17384;51.214;9.202;2023-05-16T03:10:18;98553.88;;;9.03;85.92
30618;BME280;17384;51.214;9.202;2023-05-16T03:12:43;98553.31;;;8.95;85.99
30618;BME280;17384;51.214;9.202;2023-05-16T03:15:10;98559.13;;;8.85;86.44
30618;BME280;17384;51.214;9.202;2023-05-16T03:17:35;98551.03;;;8.85;86.64
30618;BME280;17384;51.214;9.202;2023-05-16T03:20:01;98550.81;;;8.87;86.28
30618;BME280;17384;51.214;9.202;2023-05-16T03:22:27;98553.94;;;8.83;86.84
30618;BME280;17384;51.214;9.202;2023-05-16T03:24:52;98553.72;;;8.85;86.84
30618;BME280;17384;51.214;9.202;2023-05-16T03:27:18;98566.22;;;8.79;86.86
30618;BME280;17384;51.214;9.202;2023-05-16T03:29:43;98562.47;;;8.87;86.47
30618;BME280;17384;51.214;9.202;2023-05-16T03:32:09;98559.13;;;8.85;86.57
30618;BME280;17384;51.214;9.202;2023-05-16T03:34:35;98561.22;;;8.83;86.08
30618;BME280;17384;51.214;9.202;2023-05-16T03:37:01;98565.38;;;8.79;85.82
30618;BME280;17384;51.214;9.202;2023-05-16T03:39:26;98568.50;;;8.76;85.63
30618;BME280;17384;51.214;9.202;2023-05-16T03:41:52;98576.81;;;8.81;85.51
30618;BME280;17384;51.214;9.202;2023-05-16T03:44:20;98575.78;;;8.75;85.66
30618;BME280;17384;51.214;9.202;2023-05-16T03:46:45;98576.81;;;8.81;85.21
30618;BME280;17384;51.214;9.202;2023-05-16T03:49:11;98579.09;;;8.84;85.44
30618;BME280;17384;51.214;9.202;2023-05-16T03:51:36;98581.59;;;8.86;85.31
30618;BME280;17384;51.214;9.202;2023-05-16T03:54:02;98584.72;;;8.82;85.91
30618;BME280;17384;51.214;9.202;2023-05-16T03:56:27;98575.78;;;8.82;86.16
30618;BME280;17384;51.214;9.202;2023-05-16T03:58:52;98580.16;;;8.83;86.41
30618;BME280;17384;51.214;9.202;2023-05-16T04:01:18;98582.47;;;8.73;86.89
30618;BME280;17384;51.214;9.202;2023-05-16T04:03:43;98571.19;;;8.76;87.13
30618;BME280;17384;51.214;9.202;2023-05-16T04:06:09;98583.47;;;8.78;87.24
30618;BME280;17384;51.214;9.202;2023-05-16T04:08:35;98589.50;;;8.87;86.72
30618;BME280;17384;51.214;9.202;2023-05-16T04:11:00;98594.91;;;8.80;87.37
30618;BME280;17384;51.214;9.202;2023-05-16T04:13:25;98597.63;;;8.80;87.85
30618;BME280;17384;51.214;9.202;2023-05-16T04:15:51;98595.75;;;8.81;88.14
30618;BME280;17384;51.214;9.202;2023-05-16T04:18:16;98593.25;;;8.86;87.74
30618;BME280;17384;51.214;9.202;2023-05-16T04:20:42;98602.63;;;8.90;87.80
30618;BME280;17384;51.214;9.202;2023-05-16T04:23:08;98595.53;;;9.02;87.48
30618;BME280;17384;51.214;9.202;2023-05-16T04:25:35;98595.97;;;8.99;86.75
30618;BME280;17384;51.214;9.202;2023-05-16T04:28:02;98595.75;;;8.94;87.09
30618;BME280;17384;51.214;9.202;2023-05-16T04:30:27;98597.84;;;8.92;86.82
30618;BME280;17384;51.214;9.202;2023-05-16T04:32:53;98597.84;;;8.92;86.89
30618;BME280;17384;51.214;9.202;2023-05-16T04:35:18;98602.81;;;8.82;87.03
30618;BME280;17384;51.214;9.202;2023-05-16T04:37:43;98595.75;;;8.81;86.97
30618;BME280;17384;51.214;9.202;2023-05-16T04:40:10;98603.25;;;8.86;86.96
30618;BME280;17384;51.214;9.202;2023-05-16T04:42:37;98603.25;;;8.92;86.69
30618;BME280;17384;51.214;9.202;2023-05-16T04:45:02;98613.22;;;8.85;86.98
30618;BME280;17384;51.214;9.202;2023-05-16T04:47:30;98629.47;;;8.85;87.40
30618;BME280;17384;51.214;9.202;2023-05-16T04:49:56;98633.00;;;8.92;87.47
30618;BME280;17384;51.214;9.202;2023-05-16T04:52:21;98633.44;;;8.89;87.79
30618;BME280;17384;51.214;9.202;2023-05-16T04:54:49;98629.88;;;8.75;88.25
30618;BME280;17384;51.214;9.202;2023-05-16T04:57:15;98630.72;;;8.76;88.35
30618;BME280;17384;51.214;9.202;2023-05-16T04:59:40;98631.34;;;8.71;88.22
30618;BME280;17384;51.214;9.202;2023-05-16T05:02:06;98647.59;;;8.71;88.44
30618;BME280;17384;51.214;9.202;2023-05-16T05:04:31;98636.97;;;8.70;88.41
30618;BME280;17384;51.214;9.202;2023-05-16T05:06:57;98647.34;;;8.60;88.61
30618;BME280;17384;51.214;9.202;2023-05-16T05:09:22;98645.28;;;8.62;88.36
30618;BME280;17384;51.214;9.202;2023-05-16T05:11:47;98657.56;;;8.64;87.87
30618;BME280;17384;51.214;9.202;2023-05-16T05:14:13;98656.31;;;8.60;88.25
30618;BME280;17384;51.214;9.202;2023-05-16T05:16:38;98656.06;;;8.48;87.79
30618;BME280;17384;51.214;9.202;2023-05-16T05:19:04;98658.97;;;8.54;87.03
30618;BME280;17384;51.214;9.202;2023-05-16T05:21:29;98652.75;;;8.46;87.75
30618;BME280;17384;51.214;9.202;2023-05-16T05:23:55;98668.53;;;8.49;87.37
30618;BME280;17384;51.214;9.202;2023-05-16T05:26:21;98668.75;;;8.41;87.30
30618;BME280;17384;51.214;9.202;2023-05-16T05:28:48;98676.44;;;8.38;86.76
30618;BME280;17384;51.214;9.202;2023-05-16T05:31:13;98688.00;;;8.25;87.00
30618;BME280;17384;51.214;9.202;2023-05-16T05:33:39;98684.25;;;8.26;86.39
30618;BME280;17384;51.214;9.202;2023-05-16T05:36:06;98696.34;;;8.30;86.09
30618;BME280;17384;51.214;9.202;2023-05-16T05:38:31;98706.50;;;8.28;85.66
30618;BME280;17384;51.214;9.202;2023-05-16T05:40:57;98691.41;;;8.34;85.89
30618;BME280;17384;51.214;9.202;2023-05-16T05:43:22;98701.63;;;8.52;84.96
30618;BME280;17384;51.214;9.202;2023-05-16T05:45:48;98708.69;;;8.53;84.69
30618;BME280;17384;51.214;9.202;2023-05-16T05:48:13;98706.81;;;8.46;84.85
30618;BME280;17384;51.214;9.202;2023-05-16T05:50:39;98708.72;;;8.59;84.49
30618;BME280;17384;51.214;9.202;2023-05-16T05:53:05;98710.22;;;8.75;84.31
30618;BME280;17384;51.214;9.202;2023-05-16T05:55:30;98721.41;;;8.59;83.35
30618;BME280;17384;51.214;9.202;2023-05-16T05:57:56;98722.22;;;8.53;83.66
30618;BME280;17384;51.214;9.202;2023-05-16T06:00:21;98726.97;;;8.51;83.78
30618;BME280;17384;51.214;9.202;2023-05-16T06:02:47;98729.91;;;8.42;83.74
30618;BME280;17384;51.214;9.202;2023-05-16T06:05:12;98746.53;;;8.39;83.64
30618;BME280;17384;51.214;9.202;2023-05-16T06:07:38;98737.56;;;8.39;84.41
30618;BME280;17384;51.214;9.202;2023-05-16T06:10:04;98736.66;;;8.19;83.83
30618;BME280;17384;51.214;9.202;2023-05-16T06:12:30;98749.25;;;8.05;83.95
30618;BME280;17384;51.214;9.202;2023-05-16T06:14:56;98739.94;;;8.14;84.25
30618;BME280;17384;51.214;9.202;2023-05-16T06:17:21;98747.84;;;8.22;84.02
30618;BME280;17384;51.214;9.202;2023-05-16T06:19:47;98747.84;;;8.22;82.77
30618;BME280;17384;51.214;9.202;2023-05-16T06:22:12;98753.75;;;8.32;82.94
30618;BME280;17384;51.214;9.202;2023-05-16T06:24:38;98742.56;;;8.42;82.28
30618;BME280;17384;51.214;9.202;2023-05-16T06:27:04;98743.22;;;8.51;80.45
30618;BME280;17384;51.214;9.202;2023-05-16T06:29:30;98749.69;;;8.63;79.82
30618;BME280;17384;51.214;9.202;2023-05-16T06:31:55;98744.72;;;8.79;77.92
30618;BME280;17384;51.214;9.202;2023-05-16T06:34:21;98749.72;;;8.69;77.53
30618;BME280;17384;51.214;9.202;2023-05-16T06:36:52;98762.41;;;8.82;76.83
30618;BME280;17384;51.214;9.202;2023-05-16T06:39:18;98760.16;;;8.92;76.55
30618;BME280;17384;51.214;9.202;2023-05-16T06:41:43;98767.66;;;8.97;76.43
30618;BME280;17384;51.214;9.202;2023-05-16T06:44:09;98762.25;;;9.10;76.08
30618;BME280;17384;51.214;9.202;2023-05-16T06:46:35;98777.25;;;9.65;74.41
30618;BME280;17384;51.214;9.202;2023-05-16T06:49:01;98767.25;;;9.59;73.00
30618;BME280;17384;51.214;9.202;2023-05-16T06:51:27;98766.00;;;9.42;71.13
30618;BME280;17384;51.214;9.202;2023-05-16T06:53:52;98767.25;;;9.06;71.47
30618;BME280;17384;51.214;9.202;2023-05-16T06:56:18;98771.44;;;9.02;72.58
30618;BME280;17384;51.214;9.202;2023-05-16T06:58:44;98771.00;;;9.19;72.42
30618;BME280;17384;51.214;9.202;2023-05-16T07:01:10;98778.47;;;9.03;72.68
30618;BME280;17384;51.214;9.202;2023-05-16T07:03:35;98771.00;;;8.92;72.97
30618;BME280;17384;51.214;9.202;2023-05-16T07:06:00;98786.13;;;8.80;74.03
30618;BME280;17384;51.214;9.202;2023-05-16T07:08:26;98791.78;;;8.85;73.59
30618;BME280;17384;51.214;9.202;2023-05-16T07:10:51;98791.50;;;8.60;74.15
30618;BME280;17384;51.214;9.202;2023-05-16T07:13:17;98789.00;;;8.59;74.68
30618;BME280;17384;51.214;9.202;2023-05-16T07:15:42;98796.31;;;8.78;74.97
30618;BME280;17384;51.214;9.202;2023-05-16T07:18:07;98803.06;;;9.08;72.91
30618;BME280;17384;51.214;9.202;2023-05-16T07:20:33;98795.78;;;9.15;71.16
30618;BME280;17384;51.214;9.202;2023-05-16T07:22:58;98807.06;;;9.26;69.71
30618;BME280;17384;51.214;9.202;2023-05-16T07:25:24;98809.34;;;9.29;69.33
30618;BME280;17384;51.214;9.202;2023-05-16T07:27:50;98805.16;;;9.79;67.37
30618;BME280;17384;51.214;9.202;2023-05-16T07:30:15;98810.34;;;10.00;66.61
30618;BME280;17384;51.214;9.202;2023-05-16T07:32:41;98795.78;;;9.75;66.93
30618;BME280;17384;51.214;9.202;2023-05-16T07:35:08;98810.59;;;9.79;66.00
30618;BME280;17384;51.214;9.202;2023-05-16T07:37:34;98804.50;;;9.90;66.95
30618;BME280;17384;51.214;9.202;2023-05-16T07:40:00;98814.50;;;9.96;66.23
30618;BME280;17384;51.214;9.202;2023-05-16T07:42:26;98822.00;;;9.88;65.94
30618;BME280;17384;51.214;9.202;2023-05-16T07:44:51;98817.25;;;9.76;66.88
30618;BME280;17384;51.214;9.202;2023-05-16T07:47:17;98819.91;;;10.03;66.32
30618;BME280;17384;51.214;9.202;2023-05-16T07:49:42;98829.22;;;10.40;64.97
30618;BME280;17384;51.214;9.202;2023-05-16T07:52:07;98819.78;;;10.56;64.57
30618;BME280;17384;51.214;9.202;2023-05-16T07:54:34;98809.97;;;10.61;63.00
30618;BME280;17384;51.214;9.202;2023-05-16T07:56:59;98829.38;;;10.96;62.50
30618;BME280;17384;51.214;9.202;2023-05-16T07:59:25;98826.88;;;10.95;61.89
30618;BME280;17384;51.214;9.202;2023-05-16T08:01:50;98825.84;;;10.58;62.32
30618;BME280;17384;51.214;9.202;2023-05-16T08:04:16;98829.59;;;10.50;62.67
30618;BME280;17384;51.214;9.202;2023-05-16T08:06:41;98840.31;;;10.25;62.92
30618;BME280;17384;51.214;9.202;2023-05-16T08:09:07;98845.47;;;10.46;62.81
30618;BME280;17384;51.214;9.202;2023-05-16T08:11:33;98843.03;;;10.25;63.47
30618;BME280;17384;51.214;9.202;2023-05-16T08:13:59;98855.34;;;10.21;63.74
30618;BME280;17384;51.214;9.202;2023-05-16T08:16:24;98853.59;;;10.53;63.89
30618;BME280;17384;51.214;9.202;2023-05-16T08:18:50;98855.09;;;10.42;62.23
30618;BME280;17384;51.214;9.202;2023-05-16T08:21:15;98860.50;;;10.42;61.87
30618;BME280;17384;51.214;9.202;2023-05-16T08:23:41;98859.72;;;10.35;60.73
30618;BME280;17384;51.214;9.202;2023-05-16T08:26:07;98860.56;;;10.29;61.83
30618;BME280;17384;51.214;9.202;2023-05-16T08:28:32;98864.66;;;10.58;62.16
30618;BME280;17384;51.214;9.202;2023-05-16T08:30:58;98860.50;;;10.42;61.76
30618;BME280;17384;51.214;9.202;2023-05-16T08:33:23;98876.97;;;10.54;60.49
30618;BME280;17384;51.214;9.202;2023-05-16T08:35:50;98857.38;;;10.45;59.61
30618;BME280;17384;51.214;9.202;2023-05-16T08:38:17;98871.53;;;10.54;60.81
30618;BME280;17384;51.214;9.202;2023-05-16T08:40:42;98878.34;;;10.70;61.01
30618;BME280;17384;51.214;9.202;2023-05-16T08:43:08;98867.78;;;10.48;59.54
30618;BME280;17384;51.214;9.202;2023-05-16T08:45:33;98865.56;;;10.39;59.83
30618;BME280;17384;51.214;9.202;2023-05-16T08:48:00;98867.50;;;10.76;60.19
30618;BME280;17384;51.214;9.202;2023-05-16T08:50:29;98876.34;;;10.52;58.99
30618;BME280;17384;51.214;9.202;2023-05-16T08:52:56;98867.22;;;10.27;57.95
30618;BME280;17384;51.214;9.202;2023-05-16T08:55:22;98877.38;;;10.51;58.15
30618;BME280;17384;51.214;9.202;2023-05-16T08:57:49;98875.03;;;10.68;57.60
30618;BME280;17384;51.214;9.202;2023-05-16T09:00:18;98882.09;;;10.82;57.56
30618;BME280;17384;51.214;9.202;2023-05-16T09:02:44;98892.00;;;11.46;57.17
30618;BME280;17384;51.214;9.202;2023-05-16T09:05:12;98887.22;;;11.98;55.01
30618;BME280;17384;51.214;9.202;2023-05-16T09:07:38;98895.31;;;12.04;55.20
30618;BME280;17384;51.214;9.202;2023-05-16T09:10:06;98885.50;;;11.78;54.33
30618;BME280;17384;51.214;9.202;2023-05-16T09:12:33;98888.78;;;13.21;54.51
30618;BME280;17384;51.214;9.202;2023-05-16T09:15:03;98887.59;;;14.01;51.13
30618;BME280;17384;51.214;9.202;2023-05-16T09:17:36;98879.97;;;12.89;53.33
30618;BME280;17384;51.214;9.202;2023-05-16T09:22:37;98874.47;;;13.56;51.26
30618;BME280;17384;51.214;9.202;2023-05-16T09:25:03;98888.09;;;14.09;50.40
30618;BME280;17384;51.214;9.202;2023-05-16T09:27:32;98876.06;;;13.99;49.81
30618;BME280;17384;51.214;9.202;2023-05-16T09:29:58;98869.53;;;13.76;50.95
30618;BME280;17384;51.214;9.202;2023-05-16T09:32:24;98881.63;;;13.80;49.98
30618;BME280;17384;51.214;9.202;2023-05-16T09:34:52;98886.47;;;13.67;51.20
30618;BME280;17384;51.214;9.202;2023-05-16T09:37:19;98881.91;;;13.19;51.47
30618;BME280;17384;51.214;9.202;2023-05-16T09:39:49;98878.78;;;13.34;51.46
30618;BME280;17384;51.214;9.202;2023-05-16T09:42:17;98870.66;;;12.97;52.31
30618;BME280;17384;51.214;9.202;2023-05-16T09:44:48;98883.84;;;12.82;49.80
30618;BME280;17384;51.214;9.202;2023-05-16T09:47:15;98879.78;;;13.51;48.58
30618;BME280;17384;51.214;9.202;2023-05-16T09:49:43;98874.47;;;14.44;47.94
30618;BME280;17384;51.214;9.202;2023-05-16T09:52:08;98878.44;;;15.29;45.28
30618;BME280;17384;51.214;9.202;2023-05-16T09:54:34;98875.81;;;16.29;42.69
30618;BME280;17384;51.214;9.202;2023-05-16T09:57:00;98872.25;;;15.78;43.79
30618;BME280;17384;51.214;9.202;2023-05-16T09:59:29;98876.09;;;15.37;43.08
30618;BME280;17384;51.214;9.202;2023-05-16T10:01:57;98880.84;;;15.42;45.18
30618;BME280;17384;51.214;9.202;2023-05-16T10:04:26;98877.03;;;15.43;44.62
30618;BME280;17384;51.214;9.202;2023-05-16T10:06:54;98891.78;;;15.87;43.49
30618;BME280;17384;51.214;9.202;2023-05-16T10:09:23;98884.44;;;16.38;42.07
30618;BME280;17384;51.214;9.202;2023-05-16T10:11:50;98879.06;;;17.30;41.33
30618;BME280;17384;51.214;9.202;2023-05-16T10:14:17;98870.50;;;17.48;40.99
30618;BME280;17384;51.214;9.202;2023-05-16T10:16:45;98870.63;;;16.49;39.84
30618;BME280;17384;51.214;9.202;2023-05-16T10:19:11;98885.59;;;15.91;41.82
30618;BME280;17384;51.214;9.202;2023-05-16T10:21:39;98884.78;;;14.54;43.61
30618;BME280;17384;51.214;9.202;2023-05-16T10:24:11;98883.09;;;14.65;44.03
30618;BME280;17384;51.214;9.202;2023-05-16T10:26:40;98880.66;;;15.03;43.00
30618;BME280;17384;51.214;9.202;2023-05-16T10:29:06;98880.78;;;16.71;42.83
30618;BME280;17384;51.214;9.202;2023-05-16T10:31:32;98869.06;;;15.13;42.34
30618;BME280;17384;51.214;9.202;2023-05-16T10:33:58;98881.63;;;14.85;43.97
30618;BME280;17384;51.214;9.202;2023-05-16T10:36:24;98879.09;;;15.36;41.41
30618;BME280;17384;51.214;9.202;2023-05-16T10:38:50;98880.00;;;16.53;40.60
30618;BME280;17384;51.214;9.202;2023-05-16T10:41:17;98881.53;;;16.11;39.19
30618;BME280;17384;51.214;9.202;2023-05-16T10:43:45;98886.66;;;16.24;39.18
30618;BME280;17384;51.214;9.202;2023-05-16T10:46:21;98881.09;;;15.40;40.54
30618;BME280;17384;51.214;9.202;2023-05-16T10:48:47;98893.97;;;15.00;42.20
30618;BME280;17384;51.214;9.202;2023-05-16T10:53:50;98893.28;;;14.81;43.74
30618;BME280;17384;51.214;9.202;2023-05-16T10:56:21;98874.19;;;15.09;41.08
30618;BME280;17384;51.214;9.202;2023-05-16T10:58:47;98873.22;;;15.44;39.92
30618;BME280;17384;51.214;9.202;2023-05-16T11:01:17;98877.47;;;16.13;42.09
30618;BME280;17384;51.214;9.202;2023-05-16T11:06:26;98868.69;;;14.93;41.77
30618;BME280;17384;51.214;9.202;2023-05-16T11:11:38;98883.81;;;14.72;42.12
30618;BME280;17384;51.214;9.202;2023-05-16T11:14:04;98880.69;;;15.48;41.94
30618;BME280;17384;51.214;9.202;2023-05-16T11:16:30;98894.66;;;16.09;41.37
30618;BME280;17384;51.214;9.202;2023-05-16T11:19:06;98892.22;;;15.50;39.43
30618;BME280;17384;51.214;9.202;2023-05-16T11:22:05;98898.09;;;15.87;39.09
30618;BME280;17384;51.214;9.202;2023-05-16T11:24:34;98889.81;;;16.66;38.11
30618;BME280;17384;51.214;9.202;2023-05-16T11:27:01;98889.00;;;16.87;35.27
30618;BME280;17384;51.214;9.202;2023-05-16T11:29:28;98895.28;;;16.16;37.68
30618;BME280;17384;51.214;9.202;2023-05-16T11:31:57;98886.44;;;15.07;40.08
30618;BME280;17384;51.214;9.202;2023-05-16T11:34:24;98881.31;;;15.10;41.39
30618;BME280;17384;51.214;9.202;2023-05-16T11:36:49;98889.88;;;14.39;41.81
30618;BME280;17384;51.214;9.202;2023-05-16T11:39:15;98883.47;;;15.08;40.39
30618;BME280;17384;51.214;9.202;2023-05-16T11:41:41;98887.50;;;15.74;39.40
30618;BME280;17384;51.214;9.202;2023-05-16T11:44:10;98892.53;;;16.49;39.00
30618;BME280;17384;51.214;9.202;2023-05-16T11:46:38;98886.66;;;16.24;38.35
30618;BME280;17384;51.214;9.202;2023-05-16T11:49:06;98882.19;;;16.01;39.29
30618;BME280;17384;51.214;9.202;2023-05-16T11:51:34;98894.31;;;16.05;39.48
30618;BME280;17384;51.214;9.202;2023-05-16T11:54:01;98886.34;;;16.04;39.60
30618;BME280;17384;51.214;9.202;2023-05-16T11:56:29;98882.53;;;16.05;40.61
30618;BME280;17384;51.214;9.202;2023-05-16T11:59:00;98890.59;;;15.09;41.00
30618;BME280;17384;51.214;9.202;2023-05-16T12:01:37;98894.03;;;14.65;41.80
30618;BME280;17384;51.214;9.202;2023-05-16T12:04:12;98895.09;;;14.64;43.30
30618;BME280;17384;51.214;9.202;2023-05-16T12:06:39;98884.16;;;14.40;42.00
30618;BME280;17384;51.214;9.202;2023-05-16T12:09:05;98902.19;;;14.30;43.35
30618;BME280;17384;51.214;9.202;2023-05-16T12:11:42;98906.94;;;14.22;43.46
30618;BME280;17384;51.214;9.202;2023-05-16T12:14:10;98893.66;;;14.26;42.75
30618;BME280;17384;51.214;9.202;2023-05-16T12:16:37;98898.16;;;14.32;41.72
30618;BME280;17384;51.214;9.202;2023-05-16T12:19:04;98888.31;;;14.31;41.92
30618;BME280;17384;51.214;9.202;2023-05-16T12:21:31;98881.44;;;14.17;42.04
30618;BME280;17384;51.214;9.202;2023-05-16T12:23:57;98894.50;;;14.15;42.81
30618;BME280;17384;51.214;9.202;2023-05-16T12:26:31;98904.00;;;13.71;43.53
30618;BME280;17384;51.214;9.202;2023-05-16T12:29:02;98900.13;;;13.78;42.02
30618;BME280;17384;51.214;9.202;2023-05-16T12:31:29;98901.09;;;14.89;41.68
30618;BME280;17384;51.214;9.202;2023-05-16T12:33:55;98899.06;;;15.65;39.18
30618;BME280;17384;51.214;9.202;2023-05-16T12:36:22;98898.63;;;15.84;36.90
30618;BME280;17384;51.214;9.202;2023-05-16T12:38:48;98912.59;;;16.55;38.56
30618;BME280;17384;51.214;9.202;2023-05-16T12:41:18;98900.09;;;15.75;38.86
30618;BME280;17384;51.214;9.202;2023-05-16T12:43:44;98900.78;;;15.26;39.69
30618;BME280;17384;51.214;9.202;2023-05-16T12:46:10;98901.16;;;15.17;41.12
30618;BME280;17384;51.214;9.202;2023-05-16T12:48:39;98901.06;;;14.49;39.73
30618;BME280;17384;51.214;9.202;2023-05-16T12:51:18;98909.94;;;14.21;40.08
30618;BME280;17384;51.214;9.202;2023-05-16T12:53:46;98906.63;;;15.17;40.67
30618;BME280;17384;51.214;9.202;2023-05-16T12:56:12;98895.66;;;15.29;39.90
30618;BME280;17384;51.214;9.202;2023-05-16T12:58:38;98900.09;;;14.67;39.80
30618;BME280;17384;51.214;9.202;2023-05-16T13:01:04;98892.31;;;14.87;40.60
30618;BME280;17384;51.214;9.202;2023-05-16T13:03:30;98916.22;;;15.60;38.20
30618;BME280;17384;51.214;9.202;2023-05-16T13:05:57;98911.38;;;15.96;38.86
30618;BME280;17384;51.214;9.202;2023-05-16T13:08:22;98908.53;;;15.74;38.15
30618;BME280;17384;51.214;9.202;2023-05-16T13:10:48;98913.66;;;15.70;38.57
30618;BME280;17384;51.214;9.202;2023-05-16T13:13:13;98910.53;;;15.21;39.67
30618;BME280;17384;51.214;9.202;2023-05-16T13:15:39;98911.28;;;15.05;39.50
30618;BME280;17384;51.214;9.202;2023-05-16T13:18:06;98906.13;;;14.57;39.13
30618;BME280;17384;51.214;9.202;2023-05-16T13:20:32;98923.94;;;14.36;40.49
30618;BME280;17384;51.214;9.202;2023-05-16T13:22:58;98910.97;;;14.32;40.29
30618;BME280;17384;51.214;9.202;2023-05-16T13:25:23;98920.25;;;14.54;41.23
30618;BME280;17384;51.214;9.202;2023-05-16T13:27:48;98909.97;;;15.36;40.33